createdAt,value
2019-02-23T00:03:55.196Z,2.70
2019-02-23T00:06:36.621Z,2.70
2019-02-23T00:09:18.263Z,2.60
2019-02-23T00:11:59.810Z,2.50
2019-02-23T00:14:40.622Z,2.40
2019-02-23T00:17:22.152Z,2.40
2019-02-23T00:20:02.891Z,2.40
2019-02-23T00:22:44.327Z,2.30
2019-02-23T00:25:25.591Z,2.30
2019-02-23T00:28:06.256Z,2.20
2019-02-23T00:30:46.943Z,2.10
2019-02-23T00:33:28.465Z,2.20
2019-02-23T00:36:09.052Z,2.20
2019-02-23T00:38:49.719Z,2.20
2019-02-23T00:41:31.307Z,2.30
2019-02-23T00:44:11.999Z,2.30
2019-02-23T00:46:53.458Z,2.30
2019-02-23T00:49:36.493Z,2.20
2019-02-23T00:52:16.726Z,2.10
2019-02-23T00:54:58.327Z,2.10
2019-02-23T00:57:38.972Z,2.00
2019-02-23T01:00:19.687Z,1.90
2019-02-23T01:03:00.407Z,1.80
2019-02-23T01:05:41.831Z,1.70
2019-02-23T01:08:22.472Z,1.70
2019-02-23T01:11:03.780Z,1.60
2019-02-23T01:13:45.023Z,1.50
2019-02-23T01:16:26.614Z,1.40
2019-02-23T01:19:07.440Z,1.30
2019-02-23T01:21:48.227Z,1.30
2019-02-23T01:24:29.024Z,1.20
2019-02-23T01:27:09.619Z,1.10
2019-02-23T01:29:50.331Z,1.00
2019-02-23T01:32:31.066Z,0.90
2019-02-23T01:35:12.527Z,0.90
2019-02-23T01:37:53.376Z,0.90
2019-02-23T01:40:34.843Z,0.80
2019-02-23T01:43:16.284Z,0.80
2019-02-23T01:45:56.874Z,0.80
2019-02-23T01:48:38.483Z,0.80
2019-02-23T01:51:19.772Z,0.80
2019-02-23T01:54:00.954Z,0.70
2019-02-23T01:56:41.932Z,0.70
2019-02-23T01:59:22.679Z,0.70
2019-02-23T02:02:04.267Z,0.60
2019-02-23T02:04:45.107Z,0.50
2019-02-23T02:07:25.931Z,0.50
2019-02-23T02:10:07.907Z,0.50
2019-02-23T02:12:49.300Z,0.50
2019-02-23T02:15:30.595Z,0.40
2019-02-23T02:18:11.546Z,0.50
2019-02-23T02:20:52.415Z,0.40
2019-02-23T02:23:33.663Z,0.40
2019-02-23T02:26:15.105Z,0.30
2019-02-23T02:28:56.080Z,0.30
2019-02-23T02:31:37.531Z,0.20
2019-02-23T02:34:19.064Z,0.20
2019-02-23T02:37:00.369Z,0.20
2019-02-23T02:39:41.864Z,0.10
2019-02-23T02:42:23.218Z,0.00
2019-02-23T02:45:03.885Z,0.00
2019-02-23T02:47:44.516Z,-0.10
2019-02-23T02:50:25.348Z,-0.10
2019-02-23T02:53:06.043Z,-0.10
2019-02-23T02:55:47.362Z,-0.10
2019-02-23T02:58:28.108Z,-0.10
2019-02-23T03:01:09.540Z,-0.20
2019-02-23T03:03:50.266Z,-0.20
2019-02-23T03:06:31.737Z,-0.20
2019-02-23T03:09:13.281Z,-0.20
2019-02-23T03:11:54.654Z,-0.20
2019-02-23T03:14:35.988Z,-0.20
2019-02-23T03:17:16.569Z,-0.30
2019-02-23T03:19:57.923Z,-0.20
2019-02-23T03:22:38.576Z,-0.20
2019-02-23T03:25:19.203Z,-0.20
2019-02-23T03:28:00.525Z,-0.20
2019-02-23T03:30:42.024Z,-0.20
2019-02-23T03:33:22.842Z,-0.20
2019-02-23T03:36:03.539Z,-0.20
2019-02-23T03:38:45.034Z,-0.30
2019-02-23T03:41:25.755Z,-0.30
2019-02-23T03:44:07.108Z,-0.40
2019-02-23T03:46:49.968Z,-0.50
2019-02-23T03:49:31.061Z,-0.60
2019-02-23T03:52:11.984Z,-0.60
2019-02-23T03:54:53.583Z,-0.70
2019-02-23T03:57:34.358Z,-0.70
2019-02-23T04:00:15.049Z,-0.70
2019-02-23T04:02:55.864Z,-0.80
2019-02-23T04:05:37.243Z,-0.80
2019-02-23T04:08:18.531Z,-0.90
2019-02-23T04:10:59.199Z,-1.00
2019-02-23T04:13:40.292Z,-1.20
2019-02-23T04:16:23.107Z,-1.30
2019-02-23T04:19:04.506Z,-1.40
2019-02-23T04:21:45.130Z,-1.50
2019-02-23T04:24:26.430Z,-1.50
2019-02-23T04:27:07.324Z,-1.50
2019-02-23T04:29:48.422Z,-1.60
2019-02-23T04:32:29.181Z,-1.60
2019-02-23T04:35:09.904Z,-1.60
2019-02-23T04:37:50.578Z,-1.50
2019-02-23T04:40:31.983Z,-1.50
2019-02-23T04:43:13.559Z,-1.60
2019-02-23T04:45:54.392Z,-1.60
2019-02-23T04:48:35.952Z,-1.70
2019-02-23T04:51:17.492Z,-1.70
2019-02-23T04:53:58.099Z,-1.70
2019-02-23T04:56:39.002Z,-1.70
2019-02-23T04:59:20.615Z,-1.70
2019-02-23T05:02:01.245Z,-1.70
2019-02-23T05:04:41.955Z,-1.70
2019-02-23T05:07:22.913Z,-1.70
2019-02-23T05:10:03.632Z,-1.80
2019-02-23T05:12:44.398Z,-1.80
2019-02-23T05:15:25.854Z,-1.90
2019-02-23T05:18:07.202Z,-1.90
2019-02-23T05:20:47.922Z,-2.00
2019-02-23T05:23:28.612Z,-1.90
2019-02-23T05:26:09.281Z,-2.00
2019-02-23T05:28:50.591Z,-2.00
2019-02-23T05:31:31.283Z,-2.00
2019-02-23T05:34:12.785Z,-2.00
2019-02-23T05:36:54.367Z,-2.00
2019-02-23T05:39:35.806Z,-2.00
2019-02-23T05:42:17.128Z,-2.10
2019-02-23T05:44:58.370Z,-2.10
2019-02-23T05:47:39.847Z,-2.10
2019-02-23T05:50:20.715Z,-2.10
2019-02-23T05:53:02.155Z,-2.10
2019-02-23T05:55:43.619Z,-2.20
2019-02-23T05:58:25.139Z,-2.20
2019-02-23T06:01:05.885Z,-2.20
2019-02-23T06:03:47.201Z,-2.30
2019-02-23T06:06:27.875Z,-2.30
2019-02-23T06:09:09.444Z,-2.30
2019-02-23T06:11:50.782Z,-2.20
2019-02-23T06:14:31.518Z,-2.20
2019-02-23T06:17:13.056Z,-2.20
2019-02-23T06:19:53.699Z,-2.20
2019-02-23T06:22:34.528Z,-2.10
2019-02-23T06:25:16.014Z,-2.00
2019-02-23T06:27:57.357Z,-1.90
2019-02-23T06:30:37.975Z,-1.90
2019-02-23T06:33:18.710Z,-1.80
2019-02-23T06:36:00.104Z,-1.80
2019-02-23T06:38:40.746Z,-1.60
2019-02-23T06:41:21.498Z,-1.50
2019-02-23T06:44:02.134Z,-1.40
2019-02-23T06:46:43.520Z,-1.00
2019-02-23T06:49:24.193Z,0.40
2019-02-23T06:52:04.879Z,2.10
2019-02-23T06:54:46.466Z,3.80
2019-02-23T06:57:27.136Z,5.10
2019-02-23T07:00:07.805Z,6.40
2019-02-23T07:02:48.561Z,7.40
2019-02-23T07:05:29.931Z,8.20
2019-02-23T07:08:10.667Z,8.60
2019-02-23T07:10:52.204Z,8.50
2019-02-23T07:13:33.670Z,8.10
2019-02-23T07:16:14.351Z,7.40
2019-02-23T07:18:55.487Z,6.70
2019-02-23T07:21:36.294Z,6.30
2019-02-23T07:24:17.537Z,6.30
2019-02-23T07:26:58.599Z,6.40
2019-02-23T07:29:39.256Z,6.50
2019-02-23T07:32:20.811Z,6.40
2019-02-23T07:35:02.208Z,6.10
2019-02-23T07:37:42.851Z,5.90
2019-02-23T07:40:24.387Z,5.70
2019-02-23T07:43:05.923Z,5.70
2019-02-23T07:45:45.554Z,5.50
2019-02-23T07:48:33.993Z,5.00
2019-02-23T07:51:22.435Z,4.70
2019-02-23T07:54:10.863Z,4.50
2019-02-23T07:56:59.309Z,4.60
2019-02-23T07:59:40.419Z,4.80
2019-02-23T08:02:21.930Z,5.10
2019-02-23T08:05:02.587Z,5.40
2019-02-23T08:07:44.100Z,5.70
2019-02-23T08:10:24.723Z,5.80
2019-02-23T08:13:06.337Z,6.00
2019-02-23T08:15:46.988Z,6.30
2019-02-23T08:18:27.573Z,6.90
2019-02-23T08:21:08.419Z,7.40
2019-02-23T08:23:49.658Z,7.90
2019-02-23T08:26:31.235Z,8.60
2019-02-23T08:29:12.479Z,9.00
2019-02-23T08:31:53.201Z,9.40
2019-02-23T08:34:33.816Z,9.60
2019-02-23T08:37:15.200Z,9.50
2019-02-23T08:39:55.924Z,9.40
2019-02-23T08:42:37.342Z,9.60
2019-02-23T08:45:18.639Z,9.70
2019-02-23T08:48:00.161Z,9.20
2019-02-23T08:50:40.775Z,9.20
2019-02-23T08:53:22.147Z,9.50
2019-02-23T08:56:02.942Z,9.70
2019-02-23T08:58:44.423Z,9.80
2019-02-23T09:01:25.903Z,9.50
2019-02-23T09:04:07.283Z,9.40
2019-02-23T09:06:48.091Z,9.80
2019-02-23T09:09:28.722Z,10.40
2019-02-23T09:12:09.479Z,11.10
2019-02-23T09:14:50.915Z,11.50
2019-02-23T09:17:32.095Z,11.80
2019-02-23T09:20:12.836Z,12.10
2019-02-23T09:23:00.095Z,12.10
2019-02-23T09:25:35.995Z,11.50
2019-02-23T09:28:17.539Z,11.40
2019-02-23T09:30:58.832Z,11.30
2019-02-23T09:33:39.931Z,11.10
2019-02-23T09:36:21.328Z,11.10
2019-02-23T09:39:02.196Z,11.20
2019-02-23T09:41:42.835Z,11.30
2019-02-23T09:44:23.552Z,11.10
2019-02-23T09:47:04.247Z,10.50
2019-02-23T09:49:44.996Z,10.10
2019-02-23T09:52:25.567Z,10.80
2019-02-23T09:55:07.106Z,11.40
2019-02-23T09:57:48.651Z,11.80
2019-02-23T10:00:30.047Z,12.10
2019-02-23T10:03:11.636Z,12.30
2019-02-23T10:05:53.010Z,11.70
2019-02-23T10:08:33.650Z,11.10
2019-02-23T10:11:15.012Z,11.40
2019-02-23T10:13:55.699Z,12.10
2019-02-23T10:16:36.307Z,12.10
2019-02-23T10:19:17.904Z,12.20
2019-02-23T10:21:58.559Z,11.90
2019-02-23T10:24:39.179Z,11.70
2019-02-23T10:27:20.643Z,11.70
2019-02-23T10:30:01.902Z,11.40
2019-02-23T10:32:42.691Z,11.10
2019-02-23T10:35:23.382Z,11.10
2019-02-23T10:38:03.983Z,11.10
2019-02-23T10:40:44.652Z,11.20
2019-02-23T10:43:25.321Z,11.50
2019-02-23T10:46:06.919Z,11.90
2019-02-23T10:48:47.595Z,12.60
2019-02-23T10:51:28.211Z,12.30
2019-02-23T10:54:08.912Z,11.30
2019-02-23T10:56:50.427Z,11.30
2019-02-23T10:59:30.987Z,11.40
2019-02-23T11:02:11.704Z,12.10
2019-02-23T11:04:52.420Z,12.50
2019-02-23T11:07:33.887Z,12.70
2019-02-23T11:10:14.564Z,12.60
2019-02-23T11:12:55.976Z,12.60
2019-02-23T11:15:36.626Z,12.50
2019-02-23T11:18:18.200Z,12.70
2019-02-23T11:20:58.896Z,13.00
2019-02-23T11:23:44.192Z,13.50
2019-02-23T11:26:22.628Z,14.20
2019-02-23T11:29:03.284Z,14.00
2019-02-23T11:31:44.017Z,13.40
2019-02-23T11:34:25.343Z,12.90
2019-02-23T11:37:06.572Z,12.70
2019-02-23T11:39:47.494Z,12.80
2019-02-23T11:42:28.331Z,13.00
2019-02-23T11:45:08.967Z,13.10
2019-02-23T11:47:49.615Z,13.30
2019-02-23T11:50:30.396Z,13.20
2019-02-23T11:53:11.227Z,13.30
2019-02-23T11:55:51.823Z,12.90
2019-02-23T11:58:32.521Z,12.90
2019-02-23T12:01:13.211Z,12.90
2019-02-23T12:03:54.644Z,12.80
2019-02-23T12:06:35.392Z,12.50
2019-02-23T12:09:16.936Z,12.50
2019-02-23T12:11:57.803Z,11.90
2019-02-23T12:14:39.277Z,11.80
2019-02-23T12:17:19.999Z,11.90
2019-02-23T12:20:00.692Z,11.20
2019-02-23T12:22:41.444Z,10.30
2019-02-23T12:25:22.047Z,9.50
2019-02-23T12:28:02.775Z,9.00
2019-02-23T12:30:43.615Z,8.70
2019-02-23T12:33:24.884Z,8.40
2019-02-23T12:36:05.891Z,8.40
2019-02-23T12:38:46.567Z,8.50
2019-02-23T12:41:27.263Z,8.70
2019-02-23T12:44:08.629Z,8.50
2019-02-23T12:46:49.268Z,8.60
2019-02-23T12:49:29.935Z,8.70
2019-02-23T12:52:10.755Z,8.70
2019-02-23T12:54:52.049Z,8.70
2019-02-23T12:57:33.540Z,8.70
2019-02-23T13:00:14.219Z,8.50
2019-02-23T13:02:55.716Z,8.60
2019-02-23T13:05:36.271Z,8.60
2019-02-23T13:08:17.853Z,8.50
2019-02-23T13:10:59.304Z,8.40
2019-02-23T13:13:39.987Z,8.30
2019-02-23T13:16:21.506Z,8.30
2019-02-23T13:19:02.392Z,8.30
2019-02-23T13:21:43.623Z,8.20
2019-02-23T13:24:28.350Z,8.10
2019-02-23T13:27:06.667Z,8.10
2019-02-23T13:29:47.527Z,8.20
2019-02-23T13:32:28.188Z,8.10
2019-02-23T13:35:09.744Z,8.20
2019-02-23T13:37:51.187Z,8.30
2019-02-23T13:40:32.664Z,8.40
2019-02-23T13:43:14.055Z,8.40
2019-02-23T13:45:55.668Z,8.40
2019-02-23T13:48:37.107Z,8.40
2019-02-23T13:51:18.462Z,8.50
2019-02-23T13:53:59.171Z,8.70
2019-02-23T13:56:40.740Z,8.70
2019-02-23T13:59:22.327Z,8.70
2019-02-23T14:02:03.116Z,8.60
2019-02-23T14:04:44.587Z,8.60
2019-02-23T14:07:27.679Z,8.40
2019-02-23T14:10:07.951Z,8.30
2019-02-23T14:12:49.555Z,8.10
2019-02-23T14:15:30.943Z,8.10
2019-02-23T14:18:12.491Z,8.20
2019-02-23T14:20:54.075Z,8.40
2019-02-23T14:23:35.587Z,8.40
2019-02-23T14:26:17.202Z,8.40
2019-02-23T14:28:58.035Z,8.40
2019-02-23T14:31:39.383Z,8.40
2019-02-23T14:34:20.770Z,8.40
2019-02-23T14:37:02.319Z,8.40
2019-02-23T14:39:43.548Z,8.30
2019-02-23T14:42:24.818Z,8.20
2019-02-23T14:45:06.259Z,8.20
2019-02-23T14:47:46.863Z,8.30
2019-02-23T14:50:28.158Z,8.30
2019-02-23T14:53:08.828Z,8.20
2019-02-23T14:55:50.221Z,8.20
2019-02-23T14:58:31.772Z,8.20
2019-02-23T15:01:12.571Z,8.10
2019-02-23T15:03:53.835Z,8.10
2019-02-23T15:06:35.343Z,8.10
2019-02-23T15:09:17.304Z,8.00
2019-02-23T15:11:58.519Z,8.00
2019-02-23T15:14:39.245Z,7.90
2019-02-23T15:17:20.872Z,7.80
2019-02-23T15:20:02.340Z,7.80
2019-02-23T15:22:43.121Z,7.70
2019-02-23T15:25:23.968Z,7.70
2019-02-23T15:28:04.711Z,7.70
2019-02-23T15:30:45.336Z,7.60
2019-02-23T15:33:28.876Z,7.50
2019-02-23T15:36:09.303Z,7.40
2019-02-23T15:38:50.099Z,7.20
2019-02-23T15:41:30.723Z,7.10
2019-02-23T15:44:12.305Z,7.10
2019-02-23T15:46:53.572Z,7.00
2019-02-23T15:49:36.039Z,6.90
2019-02-23T15:52:16.555Z,6.80
2019-02-23T15:54:57.277Z,6.70
2019-02-23T15:57:38.179Z,6.70
2019-02-23T16:00:19.428Z,6.50
2019-02-23T16:03:00.160Z,6.50
2019-02-23T16:05:41.751Z,6.40
2019-02-23T16:08:23.211Z,6.30
2019-02-23T16:11:04.563Z,6.20
2019-02-23T16:13:46.006Z,6.10
2019-02-23T16:16:27.427Z,6.00
2019-02-23T16:19:08.707Z,6.00
2019-02-23T16:21:52.813Z,5.90
2019-02-23T16:24:32.479Z,5.80
2019-02-23T16:27:13.178Z,5.70
2019-02-23T16:29:53.901Z,5.70
2019-02-23T16:32:33.459Z,5.60
2019-02-23T16:35:22.624Z,5.50
2019-02-23T16:38:12.012Z,5.40
2019-02-23T16:41:00.435Z,5.30
2019-02-23T16:43:41.242Z,5.10
2019-02-23T16:46:22.686Z,5.00
2019-02-23T16:49:03.346Z,4.90
2019-02-23T16:51:44.099Z,4.80
2019-02-23T16:54:24.835Z,4.70
2019-02-23T16:57:05.463Z,4.60
2019-02-23T16:59:47.103Z,4.50
2019-02-23T17:02:28.619Z,4.40
2019-02-23T17:05:09.513Z,4.30
2019-02-23T17:07:50.151Z,4.20
2019-02-23T17:10:31.566Z,4.20
2019-02-23T17:13:13.037Z,4.10
2019-02-23T17:15:54.374Z,4.10
2019-02-23T17:18:36.049Z,4.10
2019-02-23T17:21:17.464Z,3.90
2019-02-23T17:23:58.131Z,3.70
2019-02-23T17:26:38.903Z,3.60
2019-02-23T17:29:19.591Z,3.50
2019-02-23T17:32:00.341Z,3.40
2019-02-23T17:34:41.683Z,3.40
2019-02-23T17:37:22.347Z,3.30
2019-02-23T17:40:03.932Z,3.20
2019-02-23T17:42:44.724Z,3.10
2019-02-23T17:45:25.987Z,3.10
2019-02-23T17:48:07.564Z,3.00
2019-02-23T17:50:48.437Z,2.90
2019-02-23T17:53:29.152Z,2.80
2019-02-23T17:56:12.603Z,2.70
2019-02-23T17:58:53.456Z,2.60
2019-02-23T18:01:35.011Z,2.60
2019-02-23T18:04:16.478Z,2.50
2019-02-23T18:06:57.091Z,2.40
2019-02-23T18:09:38.539Z,2.40
2019-02-23T18:12:19.834Z,2.30
2019-02-23T18:15:01.170Z,2.20
2019-02-23T18:17:41.813Z,2.20
2019-02-23T18:20:22.651Z,2.10
2019-02-23T18:23:03.315Z,2.00
2019-02-23T18:25:44.083Z,2.00
2019-02-23T18:28:25.551Z,1.90
2019-02-23T18:31:06.208Z,1.90
2019-02-23T18:33:46.943Z,1.80
2019-02-23T18:36:27.631Z,1.70
2019-02-23T18:39:08.299Z,1.70
2019-02-23T18:41:49.771Z,1.60
2019-02-23T18:44:31.147Z,1.60
2019-02-23T18:47:12.663Z,1.50
2019-02-23T18:49:53.272Z,1.50
2019-02-23T18:52:34.678Z,1.40
2019-02-23T18:55:15.558Z,1.40
2019-02-23T18:57:56.214Z,1.40
2019-02-23T19:00:36.995Z,1.40
2019-02-23T19:03:18.534Z,1.40
2019-02-23T19:05:59.207Z,1.30
2019-02-23T19:08:40.764Z,1.20
2019-02-23T19:11:21.405Z,1.10
2019-02-23T19:14:02.074Z,1.00
2019-02-23T19:16:43.465Z,1.00
2019-02-23T19:19:24.195Z,1.00
2019-02-23T19:22:05.671Z,1.00
2019-02-23T19:24:46.247Z,0.90
2019-02-23T19:27:27.700Z,0.90
2019-02-23T19:30:08.864Z,0.80
2019-02-23T19:32:49.458Z,0.70
2019-02-23T19:35:30.479Z,0.80
2019-02-23T19:38:11.422Z,0.70
2019-02-23T19:40:52.923Z,0.60
2019-02-23T19:43:34.412Z,0.60
2019-02-23T19:46:16.003Z,0.60
2019-02-23T19:48:57.379Z,0.50
2019-02-23T19:51:38.279Z,0.40
2019-02-23T19:54:19.135Z,0.30
2019-02-23T19:56:59.695Z,0.20
2019-02-23T19:59:40.335Z,0.20
2019-02-23T20:02:20.994Z,0.20
2019-02-23T20:05:02.381Z,0.20
2019-02-23T20:07:43.355Z,0.20
2019-02-23T20:10:22.970Z,0.20
2019-02-23T20:13:11.434Z,0.10
2019-02-23T20:15:59.856Z,0.10
2019-02-23T20:18:48.315Z,0.10
2019-02-23T20:21:36.743Z,0.00
2019-02-23T20:24:25.191Z,0.00
2019-02-23T20:27:13.671Z,0.00
2019-02-23T20:30:02.143Z,0.00
2019-02-23T20:32:50.635Z,0.00
2019-02-23T20:35:39.095Z,-0.10
2019-02-23T20:38:27.599Z,-0.10
2019-02-23T20:41:16.063Z,-0.20
2019-02-23T20:43:57.091Z,-0.10
2019-02-23T20:46:38.007Z,-0.10
2019-02-23T20:49:20.660Z,-0.20
2019-02-23T20:52:01.243Z,-0.20
2019-02-23T20:54:43.874Z,-0.20
2019-02-23T20:57:25.094Z,-0.20
2019-02-23T21:00:06.519Z,-0.30
2019-02-23T21:02:47.298Z,-0.30
2019-02-23T21:05:27.882Z,-0.30
2019-02-23T21:08:08.471Z,-0.30
2019-02-23T21:10:49.098Z,-0.40
2019-02-23T21:13:29.811Z,-0.40
2019-02-23T21:16:11.359Z,-0.40
2019-02-23T21:18:51.959Z,-0.40
2019-02-23T21:21:32.647Z,-0.50
2019-02-23T21:24:13.363Z,-0.50
2019-02-23T21:26:54.838Z,-0.50
2019-02-23T21:29:36.227Z,-0.50
2019-02-23T21:32:17.032Z,-0.60
2019-02-23T21:34:58.330Z,-0.60
2019-02-23T21:37:39.106Z,-0.60
2019-02-23T21:40:19.811Z,-0.70
2019-02-23T21:43:00.511Z,-0.70
2019-02-23T21:45:41.927Z,-0.70
2019-02-23T21:48:23.487Z,-0.70
2019-02-23T21:51:04.988Z,-0.70
2019-02-23T21:53:46.454Z,-0.80
2019-02-23T21:56:27.224Z,-0.90
2019-02-23T21:59:08.019Z,-1.00
2019-02-23T22:01:48.768Z,-1.10
2019-02-23T22:04:29.786Z,-1.10
2019-02-23T22:07:11.304Z,-1.10
2019-02-23T22:09:51.929Z,-1.10
2019-02-23T22:12:32.643Z,-1.10
2019-02-23T22:15:13.336Z,-1.10
2019-02-23T22:17:54.175Z,-1.10
2019-02-23T22:20:34.851Z,-1.10
2019-02-23T22:23:15.496Z,-1.20
2019-02-23T22:25:56.187Z,-1.20
2019-02-23T22:28:37.715Z,-1.20
2019-02-23T22:31:19.296Z,-1.20
2019-02-23T22:33:59.877Z,-1.20
2019-02-23T22:36:40.582Z,-1.20
2019-02-23T22:39:22.007Z,-1.30
2019-02-23T22:42:03.415Z,-1.30
2019-02-23T22:44:44.592Z,-1.30
2019-02-23T22:47:25.198Z,-1.30
2019-02-23T22:50:05.943Z,-1.30
2019-02-23T22:52:46.555Z,-1.30
2019-02-23T22:55:27.171Z,-1.30
2019-02-23T22:58:08.652Z,-1.30
2019-02-23T23:03:57.899Z,-1.40
2019-02-23T23:06:39.487Z,-1.40
2019-02-23T23:09:21.339Z,-1.40
2019-02-23T23:12:02.557Z,-1.40
2019-02-23T23:14:44.087Z,-1.40
2019-02-23T23:17:24.771Z,-1.40
2019-02-23T23:20:06.300Z,-1.40
2019-02-23T23:22:47.719Z,-1.40
2019-02-23T23:25:28.415Z,-1.40
2019-02-23T23:28:09.894Z,-1.50
2019-02-23T23:30:50.538Z,-1.50
2019-02-23T23:33:31.199Z,-1.60
2019-02-23T23:36:12.700Z,-1.70
2019-02-23T23:38:53.963Z,-1.70
2019-02-23T23:41:33.511Z,-1.70
2019-02-23T23:44:14.851Z,-1.80
2019-02-23T23:46:56.347Z,-1.70
2019-02-23T23:49:36.987Z,-1.80
2019-02-23T23:52:18.427Z,-1.80
2019-02-23T23:54:59.882Z,-1.80
2019-02-23T23:57:40.575Z,-1.70
